sensor_id;sensor_type;location;lat;lon;timestamp;temperature;humidity
53272;DHT22;39160;48.580;7.756;2022-10-31T00:00:53;16.70;99.90
53272;DHT22;39160;48.580;7.756;2022-10-31T00:05:46;16.70;99.90
53272;DHT22;39160;48.580;7.756;2022-10-31T00:10:38;16.60;99.90
53272;DHT22;39160;48.580;7.756;2022-10-31T00:15:29;16.60;99.90
53272;DHT22;39160;48.580;7.756;2022-10-31T00:20:20;16.50;99.90
53272;DHT22;39160;48.580;7.756;2022-10-31T00:25:10;16.50;99.90
53272;DHT22;39160;48.580;7.756;2022-10-31T00:30:01;16.50;99.90
53272;DHT22;39160;48.580;7.756;2022-10-31T00:34:52;16.40;99.90
53272;DHT22;39160;48.580;7.756;2022-10-31T00:39:43;16.40;99.90
53272;DHT22;39160;48.580;7.756;2022-10-31T00:44:35;16.30;99.90
53272;DHT22;39160;48.580;7.756;2022-10-31T00:49:26;16.30;99.90
53272;DHT22;39160;48.580;7.756;2022-10-31T00:54:16;16.30;99.90
53272;DHT22;39160;48.580;7.756;2022-10-31T00:59:07;16.20;99.90
53272;DHT22;39160;48.580;7.756;2022-10-31T01:03:57;16.20;99.90
53272;DHT22;39160;48.580;7.756;2022-10-31T01:08:48;16.10;99.90
53272;DHT22;39160;48.580;7.756;2022-10-31T01:13:39;16.00;99.90
53272;DHT22;39160;48.580;7.756;2022-10-31T01:18:30;16.00;99.90
53272;DHT22;39160;48.580;7.756;2022-10-31T01:23:21;16.00;99.90
53272;DHT22;39160;48.580;7.756;2022-10-31T01:28:11;16.00;99.90
53272;DHT22;39160;48.580;7.756;2022-10-31T01:33:02;16.00;99.90
53272;DHT22;39160;48.580;7.756;2022-10-31T01:37:52;16.00;99.90
53272;DHT22;39160;48.580;7.756;2022-10-31T01:42:43;16.00;99.90
53272;DHT22;39160;48.580;7.756;2022-10-31T01:47:40;15.90;99.90
53272;DHT22;39160;48.580;7.756;2022-10-31T01:52:39;15.90;99.90
53272;DHT22;39160;48.580;7.756;2022-10-31T01:57:32;15.90;99.90
53272;DHT22;39160;48.580;7.756;2022-10-31T02:02:24;15.90;99.90
53272;DHT22;39160;48.580;7.756;2022-10-31T02:07:25;15.90;99.90
53272;DHT22;39160;48.580;7.756;2022-10-31T02:12:16;15.90;99.90
53272;DHT22;39160;48.580;7.756;2022-10-31T02:17:08;15.80;99.90
53272;DHT22;39160;48.580;7.756;2022-10-31T02:27:11;15.70;99.90
53272;DHT22;39160;48.580;7.756;2022-10-31T02:37:31;15.70;99.90
53272;DHT22;39160;48.580;7.756;2022-10-31T02:42:57;15.70;99.90
53272;DHT22;39160;48.580;7.756;2022-10-31T02:47:51;15.70;99.90
53272;DHT22;39160;48.580;7.756;2022-10-31T02:52:44;15.70;99.90
53272;DHT22;39160;48.580;7.756;2022-10-31T02:57:35;15.70;99.90
53272;DHT22;39160;48.580;7.756;2022-10-31T03:02:39;15.70;99.90
53272;DHT22;39160;48.580;7.756;2022-10-31T03:07:47;15.60;99.90
53272;DHT22;39160;48.580;7.756;2022-10-31T03:18:03;15.60;99.90
53272;DHT22;39160;48.580;7.756;2022-10-31T03:22:55;15.60;99.90
53272;DHT22;39160;48.580;7.756;2022-10-31T03:27:47;15.60;99.90
53272;DHT22;39160;48.580;7.756;2022-10-31T03:32:54;15.50;99.90
53272;DHT22;39160;48.580;7.756;2022-10-31T03:37:47;15.50;99.90
53272;DHT22;39160;48.580;7.756;2022-10-31T03:42:43;15.40;99.90
53272;DHT22;39160;48.580;7.756;2022-10-31T03:47:37;15.50;99.90
53272;DHT22;39160;48.580;7.756;2022-10-31T03:52:36;15.50;99.90
53272;DHT22;39160;48.580;7.756;2022-10-31T03:57:53;15.50;99.90
53272;DHT22;39160;48.580;7.756;2022-10-31T04:02:58;15.50;99.90
53272;DHT22;39160;48.580;7.756;2022-10-31T04:07:53;15.50;99.90
53272;DHT22;39160;48.580;7.756;2022-10-31T04:12:51;15.40;99.90
53272;DHT22;39160;48.580;7.756;2022-10-31T04:17:45;15.50;99.90
53272;DHT22;39160;48.580;7.756;2022-10-31T04:22:37;15.50;99.90
53272;DHT22;39160;48.580;7.756;2022-10-31T04:27:28;15.40;99.90
53272;DHT22;39160;48.580;7.756;2022-10-31T04:32:18;15.40;99.90
53272;DHT22;39160;48.580;7.756;2022-10-31T04:37:09;15.40;99.90
53272;DHT22;39160;48.580;7.756;2022-10-31T04:42:00;15.40;99.90
53272;DHT22;39160;48.580;7.756;2022-10-31T04:46:50;15.40;99.90
53272;DHT22;39160;48.580;7.756;2022-10-31T04:51:41;15.40;99.90
53272;DHT22;39160;48.580;7.756;2022-10-31T04:56:31;15.40;99.90
53272;DHT22;39160;48.580;7.756;2022-10-31T05:01:22;15.40;99.90
53272;DHT22;39160;48.580;7.756;2022-10-31T05:06:13;15.40;99.90
53272;DHT22;39160;48.580;7.756;2022-10-31T05:11:04;15.30;99.90
53272;DHT22;39160;48.580;7.756;2022-10-31T05:15:55;15.30;99.90
53272;DHT22;39160;48.580;7.756;2022-10-31T05:20:46;15.40;99.90
53272;DHT22;39160;48.580;7.756;2022-10-31T05:25:36;15.30;99.90
53272;DHT22;39160;48.580;7.756;2022-10-31T05:30:29;15.30;99.90
53272;DHT22;39160;48.580;7.756;2022-10-31T05:35:29;15.20;99.90
53272;DHT22;39160;48.580;7.756;2022-10-31T05:40:21;15.20;99.90
53272;DHT22;39160;48.580;7.756;2022-10-31T05:45:16;15.20;99.90
53272;DHT22;39160;48.580;7.756;2022-10-31T05:50:08;15.20;99.90
53272;DHT22;39160;48.580;7.756;2022-10-31T05:54:59;15.20;99.90
53272;DHT22;39160;48.580;7.756;2022-10-31T05:59:50;15.10;99.90
53272;DHT22;39160;48.580;7.756;2022-10-31T06:04:43;15.10;99.90
53272;DHT22;39160;48.580;7.756;2022-10-31T06:09:33;15.00;99.90
53272;DHT22;39160;48.580;7.756;2022-10-31T06:14:24;15.10;99.90
53272;DHT22;39160;48.580;7.756;2022-10-31T06:19:14;15.10;99.90
53272;DHT22;39160;48.580;7.756;2022-10-31T06:24:05;15.10;99.90
53272;DHT22;39160;48.580;7.756;2022-10-31T06:28:56;15.10;99.90
53272;DHT22;39160;48.580;7.756;2022-10-31T06:33:46;15.10;99.90
53272;DHT22;39160;48.580;7.756;2022-10-31T06:38:37;15.10;99.90
53272;DHT22;39160;48.580;7.756;2022-10-31T06:43:27;15.00;99.90
53272;DHT22;39160;48.580;7.756;2022-10-31T06:48:18;15.00;99.90
53272;DHT22;39160;48.580;7.756;2022-10-31T06:53:10;15.00;99.90
53272;DHT22;39160;48.580;7.756;2022-10-31T06:58:01;15.00;99.90
53272;DHT22;39160;48.580;7.756;2022-10-31T07:02:56;15.10;99.90
53272;DHT22;39160;48.580;7.756;2022-10-31T07:07:46;15.10;99.90
53272;DHT22;39160;48.580;7.756;2022-10-31T07:12:37;15.10;99.90
53272;DHT22;39160;48.580;7.756;2022-10-31T07:17:28;15.10;99.90
53272;DHT22;39160;48.580;7.756;2022-10-31T07:22:18;15.20;99.90
53272;DHT22;39160;48.580;7.756;2022-10-31T07:27:09;15.20;99.90
53272;DHT22;39160;48.580;7.756;2022-10-31T07:32:00;15.40;99.90
53272;DHT22;39160;48.580;7.756;2022-10-31T07:36:51;15.50;99.90
53272;DHT22;39160;48.580;7.756;2022-10-31T07:41:42;15.30;99.90
53272;DHT22;39160;48.580;7.756;2022-10-31T07:46:32;15.50;99.90
53272;DHT22;39160;48.580;7.756;2022-10-31T07:51:23;15.60;99.90
53272;DHT22;39160;48.580;7.756;2022-10-31T07:56:14;15.80;99.90
53272;DHT22;39160;48.580;7.756;2022-10-31T08:01:05;15.80;99.90
53272;DHT22;39160;48.580;7.756;2022-10-31T08:05:56;15.60;99.90
53272;DHT22;39160;48.580;7.756;2022-10-31T08:10:47;15.40;99.90
53272;DHT22;39160;48.580;7.756;2022-10-31T08:15:37;15.70;99.90
53272;DHT22;39160;48.580;7.756;2022-10-31T08:20:30;15.90;99.90
53272;DHT22;39160;48.580;7.756;2022-10-31T08:25:21;15.90;99.90
53272;DHT22;39160;48.580;7.756;2022-10-31T08:30:11;15.80;99.90
53272;DHT22;39160;48.580;7.756;2022-10-31T08:35:02;15.90;99.90
53272;DHT22;39160;48.580;7.756;2022-10-31T08:39:53;16.10;99.90
53272;DHT22;39160;48.580;7.756;2022-10-31T08:44:43;16.20;99.90
53272;DHT22;39160;48.580;7.756;2022-10-31T08:49:34;16.10;99.90
53272;DHT22;39160;48.580;7.756;2022-10-31T08:54:24;16.40;99.90
53272;DHT22;39160;48.580;7.756;2022-10-31T08:59:15;16.50;99.90
53272;DHT22;39160;48.580;7.756;2022-10-31T09:04:06;16.60;99.90
53272;DHT22;39160;48.580;7.756;2022-10-31T09:08:56;16.80;99.90
53272;DHT22;39160;48.580;7.756;2022-10-31T09:13:47;16.90;99.90
53272;DHT22;39160;48.580;7.756;2022-10-31T09:18:38;16.90;99.90
53272;DHT22;39160;48.580;7.756;2022-10-31T09:23:29;17.00;99.90
53272;DHT22;39160;48.580;7.756;2022-10-31T09:28:21;17.00;99.90
53272;DHT22;39160;48.580;7.756;2022-10-31T09:33:13;17.20;99.90
53272;DHT22;39160;48.580;7.756;2022-10-31T09:38:09;17.20;99.90
53272;DHT22;39160;48.580;7.756;2022-10-31T09:48:31;17.30;99.90
53272;DHT22;39160;48.580;7.756;2022-10-31T09:58:20;17.30;99.90
53272;DHT22;39160;48.580;7.756;2022-10-31T10:03:44;17.40;99.90
53272;DHT22;39160;48.580;7.756;2022-10-31T10:08:36;17.20;99.90
53272;DHT22;39160;48.580;7.756;2022-10-31T10:24:12;17.60;99.90
53272;DHT22;39160;48.580;7.756;2022-10-31T10:29:02;17.60;99.90
53272;DHT22;39160;48.580;7.756;2022-10-31T10:39:02;17.60;99.90
53272;DHT22;39160;48.580;7.756;2022-10-31T10:43:54;17.60;99.90
53272;DHT22;39160;48.580;7.756;2022-10-31T10:59:12;17.60;99.90
53272;DHT22;39160;48.580;7.756;2022-10-31T11:04:15;17.40;99.90
53272;DHT22;39160;48.580;7.756;2022-10-31T11:09:09;17.40;99.90
53272;DHT22;39160;48.580;7.756;2022-10-31T11:14:04;17.40;99.90
53272;DHT22;39160;48.580;7.756;2022-10-31T11:19:13;17.50;99.90
53272;DHT22;39160;48.580;7.756;2022-10-31T11:29:02;17.50;99.90
53272;DHT22;39160;48.580;7.756;2022-10-31T11:38:50;17.70;99.90
53272;DHT22;39160;48.580;7.756;2022-10-31T11:43:50;17.70;99.90
53272;DHT22;39160;48.580;7.756;2022-10-31T11:48:47;17.70;99.90
53272;DHT22;39160;48.580;7.756;2022-10-31T11:53:51;17.80;99.90
53272;DHT22;39160;48.580;7.756;2022-10-31T11:59:12;18.00;99.90
53272;DHT22;39160;48.580;7.756;2022-10-31T12:04:11;18.40;99.90
53272;DHT22;39160;48.580;7.756;2022-10-31T12:14:12;19.10;99.90
53272;DHT22;39160;48.580;7.756;2022-10-31T12:24:10;18.50;99.90
53272;DHT22;39160;48.580;7.756;2022-10-31T12:39:33;19.40;99.90
53272;DHT22;39160;48.580;7.756;2022-10-31T12:44:47;19.60;99.90
53272;DHT22;39160;48.580;7.756;2022-10-31T13:00:26;19.40;99.90
53272;DHT22;39160;48.580;7.756;2022-10-31T13:05:41;19.60;99.90
53272;DHT22;39160;48.580;7.756;2022-10-31T13:10:56;20.10;99.90
53272;DHT22;39160;48.580;7.756;2022-10-31T13:15:56;20.50;99.90
53272;DHT22;39160;48.580;7.756;2022-10-31T13:20:49;20.50;99.90
53272;DHT22;39160;48.580;7.756;2022-10-31T13:25:46;20.10;99.90
53272;DHT22;39160;48.580;7.756;2022-10-31T13:30:40;19.80;99.90
53272;DHT22;39160;48.580;7.756;2022-10-31T13:35:51;19.70;99.90
53272;DHT22;39160;48.580;7.756;2022-10-31T13:45:55;19.30;99.90
53272;DHT22;39160;48.580;7.756;2022-10-31T13:50:57;19.40;99.90
53272;DHT22;39160;48.580;7.756;2022-10-31T13:56:09;19.50;99.90
53272;DHT22;39160;48.580;7.756;2022-10-31T14:01:19;19.50;99.90
53272;DHT22;39160;48.580;7.756;2022-10-31T14:06:10;19.60;99.90
53272;DHT22;39160;48.580;7.756;2022-10-31T14:11:01;19.60;99.90
53272;DHT22;39160;48.580;7.756;2022-10-31T14:20:45;19.80;99.90
53272;DHT22;39160;48.580;7.756;2022-10-31T14:25:37;19.60;99.90
53272;DHT22;39160;48.580;7.756;2022-10-31T14:30:29;19.40;99.90
53272;DHT22;39160;48.580;7.756;2022-10-31T14:35:23;19.30;99.90
53272;DHT22;39160;48.580;7.756;2022-10-31T14:50:51;19.40;99.90
53272;DHT22;39160;48.580;7.756;2022-10-31T14:55:47;19.30;99.90
53272;DHT22;39160;48.580;7.756;2022-10-31T15:00:38;19.00;99.90
53272;DHT22;39160;48.580;7.756;2022-10-31T15:05:29;18.80;99.90
53272;DHT22;39160;48.580;7.756;2022-10-31T15:10:23;18.50;99.90
53272;DHT22;39160;48.580;7.756;2022-10-31T15:15:19;18.40;99.90
53272;DHT22;39160;48.580;7.756;2022-10-31T15:20:12;18.30;99.90
53272;DHT22;39160;48.580;7.756;2022-10-31T15:25:20;18.10;99.90
53272;DHT22;39160;48.580;7.756;2022-10-31T15:30:23;18.20;99.90
53272;DHT22;39160;48.580;7.756;2022-10-31T15:35:41;18.10;99.90
53272;DHT22;39160;48.580;7.756;2022-10-31T15:40:32;18.20;99.90
53272;DHT22;39160;48.580;7.756;2022-10-31T15:45:27;18.00;99.90
53272;DHT22;39160;48.580;7.756;2022-10-31T15:50:36;18.00;99.90
53272;DHT22;39160;48.580;7.756;2022-10-31T15:55:30;17.80;99.90
53272;DHT22;39160;48.580;7.756;2022-10-31T16:00:29;17.80;99.90
53272;DHT22;39160;48.580;7.756;2022-10-31T16:05:20;17.80;99.90
53272;DHT22;39160;48.580;7.756;2022-10-31T16:10:25;17.80;99.90
53272;DHT22;39160;48.580;7.756;2022-10-31T16:15:17;17.70;99.90
53272;DHT22;39160;48.580;7.756;2022-10-31T16:20:19;17.60;99.90
53272;DHT22;39160;48.580;7.756;2022-10-31T16:25:17;17.60;99.90
53272;DHT22;39160;48.580;7.756;2022-10-31T16:30:41;17.50;99.90
53272;DHT22;39160;48.580;7.756;2022-10-31T16:35:36;17.60;99.90
53272;DHT22;39160;48.580;7.756;2022-10-31T16:40:28;17.50;99.90
53272;DHT22;39160;48.580;7.756;2022-10-31T16:45:23;17.60;99.90
53272;DHT22;39160;48.580;7.756;2022-10-31T16:55:14;17.50;99.90
53272;DHT22;39160;48.580;7.756;2022-10-31T17:00:13;17.40;99.90
53272;DHT22;39160;48.580;7.756;2022-10-31T17:05:05;17.40;99.90
53272;DHT22;39160;48.580;7.756;2022-10-31T17:09:55;17.20;99.90
53272;DHT22;39160;48.580;7.756;2022-10-31T17:14:49;17.20;99.90
53272;DHT22;39160;48.580;7.756;2022-10-31T17:19:41;17.20;99.90
53272;DHT22;39160;48.580;7.756;2022-10-31T17:24:32;17.30;99.90
53272;DHT22;39160;48.580;7.756;2022-10-31T17:29:22;17.30;99.90
53272;DHT22;39160;48.580;7.756;2022-10-31T17:34:13;17.20;99.90
53272;DHT22;39160;48.580;7.756;2022-10-31T17:39:04;17.20;99.90
53272;DHT22;39160;48.580;7.756;2022-10-31T17:43:57;17.30;99.90
53272;DHT22;39160;48.580;7.756;2022-10-31T17:48:48;17.10;99.90
53272;DHT22;39160;48.580;7.756;2022-10-31T17:53:39;17.20;99.90
53272;DHT22;39160;48.580;7.756;2022-10-31T17:58:30;17.30;99.90
53272;DHT22;39160;48.580;7.756;2022-10-31T18:03:21;17.10;99.90
53272;DHT22;39160;48.580;7.756;2022-10-31T18:08:11;17.10;99.90
53272;DHT22;39160;48.580;7.756;2022-10-31T18:13:02;17.10;99.90
53272;DHT22;39160;48.580;7.756;2022-10-31T18:17:53;17.20;99.90
53272;DHT22;39160;48.580;7.756;2022-10-31T18:22:43;17.10;99.90
53272;DHT22;39160;48.580;7.756;2022-10-31T18:27:34;17.00;99.90
53272;DHT22;39160;48.580;7.756;2022-10-31T18:32:24;16.90;99.90
53272;DHT22;39160;48.580;7.756;2022-10-31T18:37:15;16.80;99.90
53272;DHT22;39160;48.580;7.756;2022-10-31T18:46:58;16.70;99.90
53272;DHT22;39160;48.580;7.756;2022-10-31T18:51:49;16.70;99.90
53272;DHT22;39160;48.580;7.756;2022-10-31T18:56:40;16.70;99.90
53272;DHT22;39160;48.580;7.756;2022-10-31T19:01:31;16.60;99.90
53272;DHT22;39160;48.580;7.756;2022-10-31T19:06:23;16.50;99.90
53272;DHT22;39160;48.580;7.756;2022-10-31T19:11:14;16.40;99.90
53272;DHT22;39160;48.580;7.756;2022-10-31T19:20:56;16.30;99.90
53272;DHT22;39160;48.580;7.756;2022-10-31T19:25:47;16.20;99.90
53272;DHT22;39160;48.580;7.756;2022-10-31T19:30:38;16.20;99.90
53272;DHT22;39160;48.580;7.756;2022-10-31T19:35:28;16.10;99.90
53272;DHT22;39160;48.580;7.756;2022-10-31T19:40:19;16.20;99.90
53272;DHT22;39160;48.580;7.756;2022-10-31T19:45:10;16.20;99.90
53272;DHT22;39160;48.580;7.756;2022-10-31T19:50:01;16.20;99.90
53272;DHT22;39160;48.580;7.756;2022-10-31T19:54:54;16.10;99.90
53272;DHT22;39160;48.580;7.756;2022-10-31T19:59:45;16.10;99.90
53272;DHT22;39160;48.580;7.756;2022-10-31T20:04:35;16.00;99.90
53272;DHT22;39160;48.580;7.756;2022-10-31T20:09:29;16.00;99.90
53272;DHT22;39160;48.580;7.756;2022-10-31T20:14:20;16.00;99.90
53272;DHT22;39160;48.580;7.756;2022-10-31T20:19:11;15.90;99.90
53272;DHT22;39160;48.580;7.756;2022-10-31T20:24:03;15.90;99.90
53272;DHT22;39160;48.580;7.756;2022-10-31T20:28:55;15.90;99.90
53272;DHT22;39160;48.580;7.756;2022-10-31T20:33:47;15.80;99.90
53272;DHT22;39160;48.580;7.756;2022-10-31T20:38:39;15.80;99.90
53272;DHT22;39160;48.580;7.756;2022-10-31T20:43:31;15.80;99.90
53272;DHT22;39160;48.580;7.756;2022-10-31T20:48:22;15.80;99.90
53272;DHT22;39160;48.580;7.756;2022-10-31T20:53:14;15.80;99.90
53272;DHT22;39160;48.580;7.756;2022-10-31T20:58:04;15.70;99.90
53272;DHT22;39160;48.580;7.756;2022-10-31T21:02:55;15.80;99.90
53272;DHT22;39160;48.580;7.756;2022-10-31T21:07:46;15.80;99.90
53272;DHT22;39160;48.580;7.756;2022-10-31T21:12:38;15.80;99.90
53272;DHT22;39160;48.580;7.756;2022-10-31T21:17:29;15.70;99.90
53272;DHT22;39160;48.580;7.756;2022-10-31T21:22:20;15.60;99.90
53272;DHT22;39160;48.580;7.756;2022-10-31T21:27:11;15.60;99.90
53272;DHT22;39160;48.580;7.756;2022-10-31T21:32:01;15.60;99.90
53272;DHT22;39160;48.580;7.756;2022-10-31T21:36:52;15.70;99.90
53272;DHT22;39160;48.580;7.756;2022-10-31T21:41:42;15.70;99.90
53272;DHT22;39160;48.580;7.756;2022-10-31T21:46:33;15.70;99.90
53272;DHT22;39160;48.580;7.756;2022-10-31T21:51:27;16.30;99.90
53272;DHT22;39160;48.580;7.756;2022-10-31T21:56:19;16.50;99.90
53272;DHT22;39160;48.580;7.756;2022-10-31T22:01:10;16.50;99.90
53272;DHT22;39160;48.580;7.756;2022-10-31T22:06:02;16.60;99.90
53272;DHT22;39160;48.580;7.756;2022-10-31T22:10:53;16.50;99.90
53272;DHT22;39160;48.580;7.756;2022-10-31T22:15:44;16.30;99.90
53272;DHT22;39160;48.580;7.756;2022-10-31T22:20:34;16.30;99.90
53272;DHT22;39160;48.580;7.756;2022-10-31T22:25:25;16.00;99.90
53272;DHT22;39160;48.580;7.756;2022-10-31T22:30:15;16.10;99.90
53272;DHT22;39160;48.580;7.756;2022-10-31T22:35:06;16.20;99.90
53272;DHT22;39160;48.580;7.756;2022-10-31T22:39:57;16.20;99.90
53272;DHT22;39160;48.580;7.756;2022-10-31T22:44:48;16.30;99.90
53272;DHT22;39160;48.580;7.756;2022-10-31T22:49:39;16.20;99.90
53272;DHT22;39160;48.580;7.756;2022-10-31T22:54:29;16.10;99.90
53272;DHT22;39160;48.580;7.756;2022-10-31T22:59:21;15.90;99.90
53272;DHT22;39160;48.580;7.756;2022-10-31T23:04:13;15.90;99.90
53272;DHT22;39160;48.580;7.756;2022-10-31T23:09:05;16.10;99.90
53272;DHT22;39160;48.580;7.756;2022-10-31T23:13:57;16.10;99.90
53272;DHT22;39160;48.580;7.756;2022-10-31T23:19:03;16.30;99.90
53272;DHT22;39160;48.580;7.756;2022-10-31T23:23:57;16.30;99.90
53272;DHT22;39160;48.580;7.756;2022-10-31T23:28:48;16.60;99.90
53272;DHT22;39160;48.580;7.756;2022-10-31T23:33:39;16.20;99.90
53272;DHT22;39160;48.580;7.756;2022-10-31T23:38:29;16.20;99.90
53272;DHT22;39160;48.580;7.756;2022-10-31T23:43:20;16.30;99.90
53272;DHT22;39160;48.580;7.756;2022-10-31T23:48:11;16.10;99.90
53272;DHT22;39160;48.580;7.756;2022-10-31T23:53:01;16.10;99.90
53272;DHT22;39160;48.580;7.756;2022-10-31T23:57:52;16.00;99.90
